sensor_id;sensor_type;location;lat;lon;timestamp;P1;durP1;ratioP1;P2;durP2;ratioP2
71639;SDS011;60912;48.968;10.124;2023-05-10T00:00:21;2.87;;;1.00;;
71639;SDS011;60912;48.968;10.124;2023-05-10T00:02:48;4.85;;;1.02;;
71639;SDS011;60912;48.968;10.124;2023-05-10T00:05:14;1.87;;;1.00;;
71639;SDS011;60912;48.968;10.124;2023-05-10T00:07:39;1.93;;;1.10;;
71639;SDS011;60912;48.968;10.124;2023-05-10T00:10:05;2.93;;;0.90;;
71639;SDS011;60912;48.968;10.124;2023-05-10T00:12:31;1.45;;;0.75;;
71639;SDS011;60912;48.968;10.124;2023-05-10T00:14:56;1.70;;;0.80;;
71639;SDS011;60912;48.968;10.124;2023-05-10T00:17:22;2.43;;;0.90;;
71639;SDS011;60912;48.968;10.124;2023-05-10T00:19:47;2.00;;;0.80;;
71639;SDS011;60912;48.968;10.124;2023-05-10T00:22:13;1.90;;;0.80;;
71639;SDS011;60912;48.968;10.124;2023-05-10T00:24:38;1.93;;;0.80;;
71639;SDS011;60912;48.968;10.124;2023-05-10T00:27:03;4.10;;;0.90;;
71639;SDS011;60912;48.968;10.124;2023-05-10T00:29:29;1.60;;;0.70;;
71639;SDS011;60912;48.968;10.124;2023-05-10T00:31:54;2.03;;;0.70;;
71639;SDS011;60912;48.968;10.124;2023-05-10T00:34:20;2.63;;;0.80;;
71639;SDS011;60912;48.968;10.124;2023-05-10T00:36:45;1.35;;;0.75;;
71639;SDS011;60912;48.968;10.124;2023-05-10T00:39:11;2.33;;;0.77;;
71639;SDS011;60912;48.968;10.124;2023-05-10T00:41:37;1.50;;;0.80;;
71639;SDS011;60912;48.968;10.124;2023-05-10T00:44:02;1.67;;;0.70;;
71639;SDS011;60912;48.968;10.124;2023-05-10T00:46:30;1.83;;;0.90;;
71639;SDS011;60912;48.968;10.124;2023-05-10T00:48:55;3.00;;;0.70;;
71639;SDS011;60912;48.968;10.124;2023-05-10T00:51:21;3.05;;;0.80;;
71639;SDS011;60912;48.968;10.124;2023-05-10T00:53:47;1.40;;;0.70;;
71639;SDS011;60912;48.968;10.124;2023-05-10T00:56:14;2.22;;;0.80;;
71639;SDS011;60912;48.968;10.124;2023-05-10T00:58:40;2.45;;;0.90;;
71639;SDS011;60912;48.968;10.124;2023-05-10T01:01:06;2.87;;;0.70;;
71639;SDS011;60912;48.968;10.124;2023-05-10T01:03:33;1.43;;;0.70;;
71639;SDS011;60912;48.968;10.124;2023-05-10T01:05:58;2.60;;;0.90;;
71639;SDS011;60912;48.968;10.124;2023-05-10T01:08:24;1.93;;;0.77;;
71639;SDS011;60912;48.968;10.124;2023-05-10T01:10:50;2.30;;;0.85;;
71639;SDS011;60912;48.968;10.124;2023-05-10T01:13:18;2.20;;;1.08;;
71639;SDS011;60912;48.968;10.124;2023-05-10T01:15:54;1.60;;;0.80;;
71639;SDS011;60912;48.968;10.124;2023-05-10T01:18:21;1.70;;;0.90;;
71639;SDS011;60912;48.968;10.124;2023-05-10T01:20:47;1.40;;;0.70;;
71639;SDS011;60912;48.968;10.124;2023-05-10T01:26:16;1.10;;;0.60;;
71639;SDS011;60912;48.968;10.124;2023-05-10T01:34:18;1.77;;;0.60;;
71639;SDS011;60912;48.968;10.124;2023-05-10T01:39:32;2.03;;;0.50;;
71639;SDS011;60912;48.968;10.124;2023-05-10T01:45:00;0.90;;;0.50;;
71639;SDS011;60912;48.968;10.124;2023-05-10T01:47:37;2.35;;;0.50;;
71639;SDS011;60912;48.968;10.124;2023-05-10T01:50:06;2.53;;;0.50;;
71639;SDS011;60912;48.968;10.124;2023-05-10T01:52:44;1.43;;;0.60;;
71639;SDS011;60912;48.968;10.124;2023-05-10T01:55:16;1.35;;;0.50;;
71639;SDS011;60912;48.968;10.124;2023-05-10T01:57:45;0.80;;;0.40;;
71639;SDS011;60912;48.968;10.124;2023-05-10T02:00:11;1.25;;;0.40;;
71639;SDS011;60912;48.968;10.124;2023-05-10T02:02:39;3.75;;;0.60;;
71639;SDS011;60912;48.968;10.124;2023-05-10T02:05:07;1.77;;;0.40;;
71639;SDS011;60912;48.968;10.124;2023-05-10T02:07:34;0.90;;;0.40;;
71639;SDS011;60912;48.968;10.124;2023-05-10T02:10:01;1.13;;;0.57;;
71639;SDS011;60912;48.968;10.124;2023-05-10T02:12:29;1.00;;;0.50;;
71639;SDS011;60912;48.968;10.124;2023-05-10T02:14:56;2.47;;;0.50;;
71639;SDS011;60912;48.968;10.124;2023-05-10T02:17:24;2.77;;;0.57;;
71639;SDS011;60912;48.968;10.124;2023-05-10T02:19:50;3.38;;;0.50;;
71639;SDS011;60912;48.968;10.124;2023-05-10T02:22:17;1.00;;;0.50;;
71639;SDS011;60912;48.968;10.124;2023-05-10T02:24:44;0.82;;;0.43;;
71639;SDS011;60912;48.968;10.124;2023-05-10T02:27:11;2.92;;;0.47;;
71639;SDS011;60912;48.968;10.124;2023-05-10T02:29:38;0.60;;;0.40;;
71639;SDS011;60912;48.968;10.124;2023-05-10T02:32:04;1.10;;;0.40;;
71639;SDS011;60912;48.968;10.124;2023-05-10T02:34:31;3.47;;;0.50;;
71639;SDS011;60912;48.968;10.124;2023-05-10T02:36:57;1.08;;;0.60;;
71639;SDS011;60912;48.968;10.124;2023-05-10T02:39:24;3.75;;;0.50;;
71639;SDS011;60912;48.968;10.124;2023-05-10T02:41:53;1.30;;;0.40;;
71639;SDS011;60912;48.968;10.124;2023-05-10T02:44:20;2.88;;;0.50;;
71639;SDS011;60912;48.968;10.124;2023-05-10T02:46:46;1.75;;;0.50;;
71639;SDS011;60912;48.968;10.124;2023-05-10T02:49:12;1.10;;;0.50;;
71639;SDS011;60912;48.968;10.124;2023-05-10T02:51:40;1.00;;;0.57;;
71639;SDS011;60912;48.968;10.124;2023-05-10T02:54:15;1.13;;;0.50;;
71639;SDS011;60912;48.968;10.124;2023-05-10T02:56:53;2.08;;;0.50;;
71639;SDS011;60912;48.968;10.124;2023-05-10T02:59:22;1.85;;;0.60;;
71639;SDS011;60912;48.968;10.124;2023-05-10T03:01:56;1.50;;;0.60;;
71639;SDS011;60912;48.968;10.124;2023-05-10T03:04:37;1.10;;;0.60;;
71639;SDS011;60912;48.968;10.124;2023-05-10T03:07:03;2.20;;;0.70;;
71639;SDS011;60912;48.968;10.124;2023-05-10T03:09:29;1.35;;;0.70;;
71639;SDS011;60912;48.968;10.124;2023-05-10T03:11:56;1.60;;;0.90;;
71639;SDS011;60912;48.968;10.124;2023-05-10T03:19:56;4.70;;;0.90;;
71639;SDS011;60912;48.968;10.124;2023-05-10T03:22:24;1.63;;;0.80;;
71639;SDS011;60912;48.968;10.124;2023-05-10T03:24:55;2.75;;;0.98;;
71639;SDS011;60912;48.968;10.124;2023-05-10T03:27:25;2.23;;;1.10;;
71639;SDS011;60912;48.968;10.124;2023-05-10T03:29:52;2.10;;;1.10;;
71639;SDS011;60912;48.968;10.124;2023-05-10T03:32:18;2.40;;;1.10;;
71639;SDS011;60912;48.968;10.124;2023-05-10T03:34:44;1.90;;;1.00;;
71639;SDS011;60912;48.968;10.124;2023-05-10T03:37:09;4.07;;;1.10;;
71639;SDS011;60912;48.968;10.124;2023-05-10T03:39:35;2.67;;;0.98;;
71639;SDS011;60912;48.968;10.124;2023-05-10T03:42:00;4.03;;;1.30;;
71639;SDS011;60912;48.968;10.124;2023-05-10T03:44:26;2.27;;;1.07;;
71639;SDS011;60912;48.968;10.124;2023-05-10T03:46:51;4.35;;;1.20;;
71639;SDS011;60912;48.968;10.124;2023-05-10T03:49:17;4.50;;;1.20;;
71639;SDS011;60912;48.968;10.124;2023-05-10T03:51:43;2.28;;;1.30;;
71639;SDS011;60912;48.968;10.124;2023-05-10T03:54:08;4.67;;;1.10;;
71639;SDS011;60912;48.968;10.124;2023-05-10T03:56:33;2.83;;;1.27;;
71639;SDS011;60912;48.968;10.124;2023-05-10T03:58:59;3.40;;;1.10;;
71639;SDS011;60912;48.968;10.124;2023-05-10T04:01:24;2.33;;;0.97;;
71639;SDS011;60912;48.968;10.124;2023-05-10T04:03:50;3.83;;;1.13;;
71639;SDS011;60912;48.968;10.124;2023-05-10T04:06:15;3.00;;;1.33;;
71639;SDS011;60912;48.968;10.124;2023-05-10T04:08:40;2.40;;;1.00;;
71639;SDS011;60912;48.968;10.124;2023-05-10T04:11:10;3.15;;;1.50;;
71639;SDS011;60912;48.968;10.124;2023-05-10T04:13:36;2.72;;;1.30;;
71639;SDS011;60912;48.968;10.124;2023-05-10T04:16:02;2.97;;;1.20;;
71639;SDS011;60912;48.968;10.124;2023-05-10T04:18:27;2.10;;;1.10;;
71639;SDS011;60912;48.968;10.124;2023-05-10T04:20:53;5.00;;;1.30;;
71639;SDS011;60912;48.968;10.124;2023-05-10T04:23:18;3.90;;;1.40;;
71639;SDS011;60912;48.968;10.124;2023-05-10T04:25:44;3.40;;;1.30;;
71639;SDS011;60912;48.968;10.124;2023-05-10T04:28:09;3.10;;;1.37;;
71639;SDS011;60912;48.968;10.124;2023-05-10T04:30:35;6.60;;;1.40;;
71639;SDS011;60912;48.968;10.124;2023-05-10T04:33:00;2.70;;;1.33;;
71639;SDS011;60912;48.968;10.124;2023-05-10T04:35:29;3.42;;;1.23;;
71639;SDS011;60912;48.968;10.124;2023-05-10T04:37:55;3.38;;;1.13;;
71639;SDS011;60912;48.968;10.124;2023-05-10T04:40:21;4.70;;;1.40;;
71639;SDS011;60912;48.968;10.124;2023-05-10T04:42:46;4.73;;;1.30;;
71639;SDS011;60912;48.968;10.124;2023-05-10T04:45:12;3.23;;;1.40;;
71639;SDS011;60912;48.968;10.124;2023-05-10T04:47:39;3.60;;;1.58;;
71639;SDS011;60912;48.968;10.124;2023-05-10T04:50:05;3.97;;;1.80;;
71639;SDS011;60912;48.968;10.124;2023-05-10T04:52:40;2.80;;;1.43;;
71639;SDS011;60912;48.968;10.124;2023-05-10T04:55:05;3.53;;;1.40;;
71639;SDS011;60912;48.968;10.124;2023-05-10T04:57:32;2.97;;;1.90;;
71639;SDS011;60912;48.968;10.124;2023-05-10T04:59:59;4.53;;;1.47;;
71639;SDS011;60912;48.968;10.124;2023-05-10T05:02:24;3.23;;;1.53;;
71639;SDS011;60912;48.968;10.124;2023-05-10T05:04:50;5.15;;;1.60;;
71639;SDS011;60912;48.968;10.124;2023-05-10T05:07:16;6.40;;;1.90;;
71639;SDS011;60912;48.968;10.124;2023-05-10T05:09:41;4.73;;;2.40;;
71639;SDS011;60912;48.968;10.124;2023-05-10T05:12:06;5.77;;;2.17;;
71639;SDS011;60912;48.968;10.124;2023-05-10T05:14:32;3.83;;;2.00;;
71639;SDS011;60912;48.968;10.124;2023-05-10T05:16:57;6.83;;;2.17;;
71639;SDS011;60912;48.968;10.124;2023-05-10T05:19:23;3.50;;;2.20;;
71639;SDS011;60912;48.968;10.124;2023-05-10T05:21:49;4.43;;;2.40;;
71639;SDS011;60912;48.968;10.124;2023-05-10T05:24:14;6.23;;;2.27;;
71639;SDS011;60912;48.968;10.124;2023-05-10T05:26:40;5.55;;;2.10;;
71639;SDS011;60912;48.968;10.124;2023-05-10T05:29:05;6.37;;;2.47;;
71639;SDS011;60912;48.968;10.124;2023-05-10T05:31:31;5.50;;;2.20;;
71639;SDS011;60912;48.968;10.124;2023-05-10T05:33:56;4.22;;;2.15;;
71639;SDS011;60912;48.968;10.124;2023-05-10T05:36:22;4.33;;;2.20;;
71639;SDS011;60912;48.968;10.124;2023-05-10T05:38:47;2.37;;;1.33;;
71639;SDS011;60912;48.968;10.124;2023-05-10T05:41:12;2.80;;;1.30;;
71639;SDS011;60912;48.968;10.124;2023-05-10T05:43:38;3.65;;;1.40;;
71639;SDS011;60912;48.968;10.124;2023-05-10T05:46:04;2.40;;;1.40;;
71639;SDS011;60912;48.968;10.124;2023-05-10T05:48:30;3.20;;;1.40;;
71639;SDS011;60912;48.968;10.124;2023-05-10T05:50:55;5.17;;;1.60;;
71639;SDS011;60912;48.968;10.124;2023-05-10T05:53:24;3.60;;;1.50;;
71639;SDS011;60912;48.968;10.124;2023-05-10T05:55:53;3.17;;;1.38;;
71639;SDS011;60912;48.968;10.124;2023-05-10T05:58:20;3.10;;;1.35;;
71639;SDS011;60912;48.968;10.124;2023-05-10T06:00:45;6.07;;;2.10;;
71639;SDS011;60912;48.968;10.124;2023-05-10T06:03:11;3.50;;;1.67;;
71639;SDS011;60912;48.968;10.124;2023-05-10T06:05:36;4.17;;;1.87;;
71639;SDS011;60912;48.968;10.124;2023-05-10T06:08:02;4.10;;;1.60;;
71639;SDS011;60912;48.968;10.124;2023-05-10T06:10:27;3.90;;;1.87;;
71639;SDS011;60912;48.968;10.124;2023-05-10T06:12:53;5.03;;;2.03;;
71639;SDS011;60912;48.968;10.124;2023-05-10T06:15:19;3.67;;;1.77;;
71639;SDS011;60912;48.968;10.124;2023-05-10T06:17:44;3.83;;;1.60;;
71639;SDS011;60912;48.968;10.124;2023-05-10T06:20:10;5.03;;;1.60;;
71639;SDS011;60912;48.968;10.124;2023-05-10T06:22:36;3.53;;;1.70;;
71639;SDS011;60912;48.968;10.124;2023-05-10T06:25:01;2.83;;;1.30;;
71639;SDS011;60912;48.968;10.124;2023-05-10T06:27:27;3.97;;;1.63;;
71639;SDS011;60912;48.968;10.124;2023-05-10T06:29:55;4.57;;;1.85;;
71639;SDS011;60912;48.968;10.124;2023-05-10T06:32:21;3.40;;;1.80;;
71639;SDS011;60912;48.968;10.124;2023-05-10T06:34:49;5.90;;;2.05;;
71639;SDS011;60912;48.968;10.124;2023-05-10T06:37:15;6.50;;;2.33;;
71639;SDS011;60912;48.968;10.124;2023-05-10T06:39:40;4.22;;;1.90;;
71639;SDS011;60912;48.968;10.124;2023-05-10T06:42:06;2.90;;;1.70;;
71639;SDS011;60912;48.968;10.124;2023-05-10T06:44:31;5.33;;;2.17;;
71639;SDS011;60912;48.968;10.124;2023-05-10T06:46:56;4.50;;;1.80;;
71639;SDS011;60912;48.968;10.124;2023-05-10T06:49:22;4.93;;;1.73;;
71639;SDS011;60912;48.968;10.124;2023-05-10T06:51:47;5.75;;;1.70;;
71639;SDS011;60912;48.968;10.124;2023-05-10T06:54:13;4.33;;;1.90;;
71639;SDS011;60912;48.968;10.124;2023-05-10T06:56:38;4.03;;;1.47;;
71639;SDS011;60912;48.968;10.124;2023-05-10T06:59:04;3.83;;;1.77;;
71639;SDS011;60912;48.968;10.124;2023-05-10T07:01:29;4.53;;;1.87;;
71639;SDS011;60912;48.968;10.124;2023-05-10T07:03:55;3.03;;;1.80;;
71639;SDS011;60912;48.968;10.124;2023-05-10T07:06:23;6.45;;;1.90;;
71639;SDS011;60912;48.968;10.124;2023-05-10T07:08:48;3.73;;;1.70;;
71639;SDS011;60912;48.968;10.124;2023-05-10T07:11:17;5.43;;;1.90;;
71639;SDS011;60912;48.968;10.124;2023-05-10T07:13:42;3.20;;;1.60;;
71639;SDS011;60912;48.968;10.124;2023-05-10T07:16:09;3.42;;;1.60;;
71639;SDS011;60912;48.968;10.124;2023-05-10T07:27:23;3.95;;;1.48;;
71639;SDS011;60912;48.968;10.124;2023-05-10T07:29:49;3.37;;;1.50;;
71639;SDS011;60912;48.968;10.124;2023-05-10T07:32:16;4.40;;;1.50;;
71639;SDS011;60912;48.968;10.124;2023-05-10T07:34:41;3.25;;;1.40;;
71639;SDS011;60912;48.968;10.124;2023-05-10T07:37:06;3.20;;;1.37;;
71639;SDS011;60912;48.968;10.124;2023-05-10T07:39:32;4.32;;;1.60;;
71639;SDS011;60912;48.968;10.124;2023-05-10T07:41:58;3.53;;;1.37;;
71639;SDS011;60912;48.968;10.124;2023-05-10T07:44:23;4.33;;;1.80;;
71639;SDS011;60912;48.968;10.124;2023-05-10T07:46:49;4.13;;;1.50;;
71639;SDS011;60912;48.968;10.124;2023-05-10T07:49:15;2.95;;;1.30;;
71639;SDS011;60912;48.968;10.124;2023-05-10T07:51:40;4.60;;;1.30;;
71639;SDS011;60912;48.968;10.124;2023-05-10T07:54:07;2.70;;;1.30;;
71639;SDS011;60912;48.968;10.124;2023-05-10T07:56:32;7.10;;;1.40;;
71639;SDS011;60912;48.968;10.124;2023-05-10T07:58:59;4.50;;;1.52;;
71639;SDS011;60912;48.968;10.124;2023-05-10T08:01:25;3.72;;;1.20;;
71639;SDS011;60912;48.968;10.124;2023-05-10T08:03:51;3.97;;;1.60;;
71639;SDS011;60912;48.968;10.124;2023-05-10T08:06:18;3.93;;;1.13;;
71639;SDS011;60912;48.968;10.124;2023-05-10T08:08:45;2.78;;;1.35;;
71639;SDS011;60912;48.968;10.124;2023-05-10T08:11:14;5.30;;;1.50;;
71639;SDS011;60912;48.968;10.124;2023-05-10T08:13:41;3.90;;;1.50;;
71639;SDS011;60912;48.968;10.124;2023-05-10T08:16:06;4.93;;;2.00;;
71639;SDS011;60912;48.968;10.124;2023-05-10T08:18:32;3.33;;;1.43;;
71639;SDS011;60912;48.968;10.124;2023-05-10T08:20:58;3.67;;;1.38;;
71639;SDS011;60912;48.968;10.124;2023-05-10T08:23:23;5.33;;;1.20;;
71639;SDS011;60912;48.968;10.124;2023-05-10T08:25:48;5.00;;;1.60;;
71639;SDS011;60912;48.968;10.124;2023-05-10T08:28:14;4.03;;;1.30;;
71639;SDS011;60912;48.968;10.124;2023-05-10T08:30:40;2.60;;;1.03;;
71639;SDS011;60912;48.968;10.124;2023-05-10T08:33:05;5.13;;;1.47;;
71639;SDS011;60912;48.968;10.124;2023-05-10T08:35:30;4.90;;;1.50;;
71639;SDS011;60912;48.968;10.124;2023-05-10T08:37:56;4.05;;;1.50;;
71639;SDS011;60912;48.968;10.124;2023-05-10T08:40:22;4.93;;;1.80;;
71639;SDS011;60912;48.968;10.124;2023-05-10T08:43:03;6.25;;;1.70;;
71639;SDS011;60912;48.968;10.124;2023-05-10T08:45:39;4.18;;;1.50;;
71639;SDS011;60912;48.968;10.124;2023-05-10T08:48:06;3.33;;;1.60;;
71639;SDS011;60912;48.968;10.124;2023-05-10T08:50:36;5.80;;;2.30;;
71639;SDS011;60912;48.968;10.124;2023-05-10T08:53:09;4.53;;;1.40;;
71639;SDS011;60912;48.968;10.124;2023-05-10T08:55:36;3.08;;;1.08;;
71639;SDS011;60912;48.968;10.124;2023-05-10T08:58:06;2.78;;;1.10;;
71639;SDS011;60912;48.968;10.124;2023-05-10T09:00:33;4.90;;;1.50;;
71639;SDS011;60912;48.968;10.124;2023-05-10T09:03:00;4.10;;;1.50;;
71639;SDS011;60912;48.968;10.124;2023-05-10T09:05:26;4.37;;;1.70;;
71639;SDS011;60912;48.968;10.124;2023-05-10T09:07:52;4.20;;;1.63;;
71639;SDS011;60912;48.968;10.124;2023-05-10T09:10:19;3.63;;;1.63;;
71639;SDS011;60912;48.968;10.124;2023-05-10T09:12:45;4.95;;;1.25;;
71639;SDS011;60912;48.968;10.124;2023-05-10T09:15:11;3.43;;;1.33;;
71639;SDS011;60912;48.968;10.124;2023-05-10T09:17:39;5.68;;;1.10;;
71639;SDS011;60912;48.968;10.124;2023-05-10T09:20:06;3.30;;;1.40;;
71639;SDS011;60912;48.968;10.124;2023-05-10T09:22:32;3.47;;;1.30;;
71639;SDS011;60912;48.968;10.124;2023-05-10T09:25:11;3.03;;;0.90;;
71639;SDS011;60912;48.968;10.124;2023-05-10T09:27:39;2.60;;;1.00;;
71639;SDS011;60912;48.968;10.124;2023-05-10T09:30:05;3.10;;;1.17;;
71639;SDS011;60912;48.968;10.124;2023-05-10T09:32:38;5.05;;;1.42;;
71639;SDS011;60912;48.968;10.124;2023-05-10T09:35:09;3.50;;;1.35;;
71639;SDS011;60912;48.968;10.124;2023-05-10T09:37:40;2.33;;;0.90;;
71639;SDS011;60912;48.968;10.124;2023-05-10T09:40:08;1.65;;;0.73;;
71639;SDS011;60912;48.968;10.124;2023-05-10T09:42:37;1.50;;;0.80;;
71639;SDS011;60912;48.968;10.124;2023-05-10T09:45:06;1.70;;;0.82;;
71639;SDS011;60912;48.968;10.124;2023-05-10T09:47:32;3.10;;;1.10;;
71639;SDS011;60912;48.968;10.124;2023-05-10T09:49:59;4.27;;;1.00;;
71639;SDS011;60912;48.968;10.124;2023-05-10T09:52:31;3.35;;;1.30;;
71639;SDS011;60912;48.968;10.124;2023-05-10T09:55:21;4.93;;;1.70;;
71639;SDS011;60912;48.968;10.124;2023-05-10T09:57:49;3.08;;;1.13;;
71639;SDS011;60912;48.968;10.124;2023-05-10T10:00:23;3.17;;;1.77;;
71639;SDS011;60912;48.968;10.124;2023-05-10T10:02:58;5.27;;;1.07;;
71639;SDS011;60912;48.968;10.124;2023-05-10T10:05:31;1.92;;;0.75;;
71639;SDS011;60912;48.968;10.124;2023-05-10T10:07:58;3.45;;;1.10;;
71639;SDS011;60912;48.968;10.124;2023-05-10T10:10:24;2.30;;;0.90;;
71639;SDS011;60912;48.968;10.124;2023-05-10T10:12:51;2.20;;;0.93;;
71639;SDS011;60912;48.968;10.124;2023-05-10T10:15:17;1.90;;;0.80;;
71639;SDS011;60912;48.968;10.124;2023-05-10T10:17:44;3.85;;;1.00;;
71639;SDS011;60912;48.968;10.124;2023-05-10T10:20:13;2.65;;;0.90;;
71639;SDS011;60912;48.968;10.124;2023-05-10T10:22:40;1.85;;;0.90;;
71639;SDS011;60912;48.968;10.124;2023-05-10T10:25:05;10.10;;;1.20;;
71639;SDS011;60912;48.968;10.124;2023-05-10T10:35:32;2.30;;;1.00;;
71639;SDS011;60912;48.968;10.124;2023-05-10T10:37:59;2.90;;;0.95;;
71639;SDS011;60912;48.968;10.124;2023-05-10T10:42:54;1.70;;;0.90;;
71639;SDS011;60912;48.968;10.124;2023-05-10T10:45:21;3.80;;;1.20;;
71639;SDS011;60912;48.968;10.124;2023-05-10T10:47:47;2.03;;;0.85;;
71639;SDS011;60912;48.968;10.124;2023-05-10T10:50:13;4.05;;;1.30;;
71639;SDS011;60912;48.968;10.124;2023-05-10T10:52:44;2.92;;;1.20;;
71639;SDS011;60912;48.968;10.124;2023-05-10T10:55:11;2.47;;;1.15;;
71639;SDS011;60912;48.968;10.124;2023-05-10T10:57:54;6.10;;;1.60;;
71639;SDS011;60912;48.968;10.124;2023-05-10T11:03:12;2.25;;;0.90;;
71639;SDS011;60912;48.968;10.124;2023-05-10T11:10:50;3.47;;;1.40;;
71639;SDS011;60912;48.968;10.124;2023-05-10T11:13:17;6.57;;;1.80;;
71639;SDS011;60912;48.968;10.124;2023-05-10T11:15:55;3.22;;;1.42;;
71639;SDS011;60912;48.968;10.124;2023-05-10T11:18:37;2.10;;;1.00;;
71639;SDS011;60912;48.968;10.124;2023-05-10T11:21:03;2.55;;;1.10;;
71639;SDS011;60912;48.968;10.124;2023-05-10T11:26:06;2.83;;;1.17;;
71639;SDS011;60912;48.968;10.124;2023-05-10T11:28:34;4.60;;;1.40;;
71639;SDS011;60912;48.968;10.124;2023-05-10T11:31:10;2.13;;;0.90;;
71639;SDS011;60912;48.968;10.124;2023-05-10T11:36:20;4.97;;;1.20;;
71639;SDS011;60912;48.968;10.124;2023-05-10T11:38:58;4.07;;;1.10;;
71639;SDS011;60912;48.968;10.124;2023-05-10T11:41:27;5.25;;;1.00;;
71639;SDS011;60912;48.968;10.124;2023-05-10T11:43:54;4.10;;;1.02;;
71639;SDS011;60912;48.968;10.124;2023-05-10T11:46:22;4.07;;;1.00;;
71639;SDS011;60912;48.968;10.124;2023-05-10T11:48:52;2.73;;;0.70;;
71639;SDS011;60912;48.968;10.124;2023-05-10T11:51:24;3.90;;;1.20;;
71639;SDS011;60912;48.968;10.124;2023-05-10T11:53:52;4.30;;;1.67;;
71639;SDS011;60912;48.968;10.124;2023-05-10T11:56:18;2.15;;;0.80;;
71639;SDS011;60912;48.968;10.124;2023-05-10T11:58:51;3.05;;;1.10;;
71639;SDS011;60912;48.968;10.124;2023-05-10T12:01:18;4.73;;;0.70;;
71639;SDS011;60912;48.968;10.124;2023-05-10T12:03:44;1.67;;;0.70;;
71639;SDS011;60912;48.968;10.124;2023-05-10T12:06:10;1.50;;;0.70;;
71639;SDS011;60912;48.968;10.124;2023-05-10T12:08:35;1.23;;;0.70;;
71639;SDS011;60912;48.968;10.124;2023-05-10T12:11:04;2.28;;;0.60;;
71639;SDS011;60912;48.968;10.124;2023-05-10T12:13:38;3.40;;;0.90;;
71639;SDS011;60912;48.968;10.124;2023-05-10T12:18:53;2.88;;;1.00;;
71639;SDS011;60912;48.968;10.124;2023-05-10T12:21:20;4.43;;;0.85;;
71639;SDS011;60912;48.968;10.124;2023-05-10T12:23:46;4.87;;;1.13;;
71639;SDS011;60912;48.968;10.124;2023-05-10T12:26:14;4.38;;;1.10;;
71639;SDS011;60912;48.968;10.124;2023-05-10T12:28:40;2.95;;;1.17;;
71639;SDS011;60912;48.968;10.124;2023-05-10T12:31:05;2.67;;;1.00;;
71639;SDS011;60912;48.968;10.124;2023-05-10T12:33:38;1.85;;;0.88;;
71639;SDS011;60912;48.968;10.124;2023-05-10T12:36:11;4.23;;;1.10;;
71639;SDS011;60912;48.968;10.124;2023-05-10T12:38:39;5.80;;;1.13;;
71639;SDS011;60912;48.968;10.124;2023-05-10T12:41:09;4.07;;;1.20;;
71639;SDS011;60912;48.968;10.124;2023-05-10T12:43:35;3.83;;;0.90;;
71639;SDS011;60912;48.968;10.124;2023-05-10T12:46:07;2.58;;;1.10;;
71639;SDS011;60912;48.968;10.124;2023-05-10T12:48:34;2.90;;;0.90;;
71639;SDS011;60912;48.968;10.124;2023-05-10T12:51:01;3.92;;;1.00;;
71639;SDS011;60912;48.968;10.124;2023-05-10T12:53:27;2.60;;;0.98;;
71639;SDS011;60912;48.968;10.124;2023-05-10T12:55:52;2.00;;;0.80;;
71639;SDS011;60912;48.968;10.124;2023-05-10T12:58:18;3.60;;;1.00;;
71639;SDS011;60912;48.968;10.124;2023-05-10T13:00:44;3.30;;;0.90;;
71639;SDS011;60912;48.968;10.124;2023-05-10T13:03:10;1.97;;;0.70;;
71639;SDS011;60912;48.968;10.124;2023-05-10T13:05:36;3.17;;;0.80;;
71639;SDS011;60912;48.968;10.124;2023-05-10T13:08:01;3.17;;;1.20;;
71639;SDS011;60912;48.968;10.124;2023-05-10T13:10:28;9.17;;;2.43;;
71639;SDS011;60912;48.968;10.124;2023-05-10T13:12:55;3.45;;;0.90;;
71639;SDS011;60912;48.968;10.124;2023-05-10T13:15:20;6.10;;;1.20;;
71639;SDS011;60912;48.968;10.124;2023-05-10T13:17:47;5.60;;;1.00;;
71639;SDS011;60912;48.968;10.124;2023-05-10T13:20:13;2.25;;;0.80;;
71639;SDS011;60912;48.968;10.124;2023-05-10T13:22:40;3.97;;;1.10;;
71639;SDS011;60912;48.968;10.124;2023-05-10T13:25:07;4.15;;;0.90;;
71639;SDS011;60912;48.968;10.124;2023-05-10T13:27:33;2.60;;;1.10;;
71639;SDS011;60912;48.968;10.124;2023-05-10T13:29:58;2.50;;;0.95;;
71639;SDS011;60912;48.968;10.124;2023-05-10T13:32:24;1.60;;;0.70;;
71639;SDS011;60912;48.968;10.124;2023-05-10T13:34:50;1.63;;;0.70;;
71639;SDS011;60912;48.968;10.124;2023-05-10T13:37:16;3.03;;;0.77;;
71639;SDS011;60912;48.968;10.124;2023-05-10T13:39:42;1.33;;;0.50;;
71639;SDS011;60912;48.968;10.124;2023-05-10T13:42:08;1.77;;;0.60;;
71639;SDS011;60912;48.968;10.124;2023-05-10T13:44:41;1.75;;;0.70;;
71639;SDS011;60912;48.968;10.124;2023-05-10T13:47:06;3.77;;;0.90;;
71639;SDS011;60912;48.968;10.124;2023-05-10T13:49:32;3.92;;;1.05;;
71639;SDS011;60912;48.968;10.124;2023-05-10T13:51:59;3.75;;;1.10;;
71639;SDS011;60912;48.968;10.124;2023-05-10T13:54:31;1.83;;;0.80;;
71639;SDS011;60912;48.968;10.124;2023-05-10T13:56:56;3.13;;;0.80;;
71639;SDS011;60912;48.968;10.124;2023-05-10T13:59:22;2.33;;;0.80;;
71639;SDS011;60912;48.968;10.124;2023-05-10T14:01:48;1.73;;;0.73;;
71639;SDS011;60912;48.968;10.124;2023-05-10T14:04:14;6.90;;;1.20;;
71639;SDS011;60912;48.968;10.124;2023-05-10T14:06:40;2.90;;;1.00;;
71639;SDS011;60912;48.968;10.124;2023-05-10T14:09:06;2.33;;;0.83;;
71639;SDS011;60912;48.968;10.124;2023-05-10T14:11:33;1.77;;;0.70;;
71639;SDS011;60912;48.968;10.124;2023-05-10T14:13:59;4.15;;;1.00;;
71639;SDS011;60912;48.968;10.124;2023-05-10T14:16:25;2.37;;;0.87;;
71639;SDS011;60912;48.968;10.124;2023-05-10T14:18:52;7.95;;;1.00;;
71639;SDS011;60912;48.968;10.124;2023-05-10T14:21:17;4.15;;;1.10;;
71639;SDS011;60912;48.968;10.124;2023-05-10T14:23:43;4.97;;;1.47;;
71639;SDS011;60912;48.968;10.124;2023-05-10T14:26:12;3.37;;;1.50;;
71639;SDS011;60912;48.968;10.124;2023-05-10T14:28:37;2.70;;;0.98;;
71639;SDS011;60912;48.968;10.124;2023-05-10T14:31:03;6.97;;;0.93;;
71639;SDS011;60912;48.968;10.124;2023-05-10T14:33:29;5.97;;;1.43;;
71639;SDS011;60912;48.968;10.124;2023-05-10T14:35:54;4.80;;;1.38;;
71639;SDS011;60912;48.968;10.124;2023-05-10T14:38:22;2.22;;;0.98;;
71639;SDS011;60912;48.968;10.124;2023-05-10T14:40:48;2.43;;;0.90;;
71639;SDS011;60912;48.968;10.124;2023-05-10T14:43:16;2.00;;;0.80;;
71639;SDS011;60912;48.968;10.124;2023-05-10T14:45:43;2.45;;;0.80;;
71639;SDS011;60912;48.968;10.124;2023-05-10T14:48:08;2.47;;;0.90;;
71639;SDS011;60912;48.968;10.124;2023-05-10T14:50:37;3.22;;;1.20;;
71639;SDS011;60912;48.968;10.124;2023-05-10T14:53:06;3.40;;;1.02;;
71639;SDS011;60912;48.968;10.124;2023-05-10T14:55:31;2.53;;;1.05;;
71639;SDS011;60912;48.968;10.124;2023-05-10T14:58:01;3.60;;;1.13;;
71639;SDS011;60912;48.968;10.124;2023-05-10T15:00:28;3.55;;;1.33;;
71639;SDS011;60912;48.968;10.124;2023-05-10T15:02:54;3.90;;;1.17;;
71639;SDS011;60912;48.968;10.124;2023-05-10T15:05:20;3.10;;;1.10;;
71639;SDS011;60912;48.968;10.124;2023-05-10T15:07:45;2.80;;;0.90;;
71639;SDS011;60912;48.968;10.124;2023-05-10T15:10:11;3.63;;;1.20;;
71639;SDS011;60912;48.968;10.124;2023-05-10T15:12:42;3.35;;;1.10;;
71639;SDS011;60912;48.968;10.124;2023-05-10T15:15:11;2.20;;;0.90;;
71639;SDS011;60912;48.968;10.124;2023-05-10T15:17:37;3.23;;;1.10;;
71639;SDS011;60912;48.968;10.124;2023-05-10T15:20:02;4.37;;;1.20;;
71639;SDS011;60912;48.968;10.124;2023-05-10T15:22:29;2.65;;;1.10;;
71639;SDS011;60912;48.968;10.124;2023-05-10T15:24:56;3.33;;;1.10;;
71639;SDS011;60912;48.968;10.124;2023-05-10T15:27:22;5.72;;;1.55;;